createdAt,value
2019-01-24T00:02:25.042Z,-6.18
2019-01-24T00:04:54.197Z,-6.15
2019-01-24T00:07:24.034Z,-6.21
2019-01-24T00:09:55.123Z,-6.16
2019-01-24T00:12:27.238Z,-6.16
2019-01-24T00:14:58.469Z,-6.13
2019-01-24T00:17:28.873Z,-6.26
2019-01-24T00:19:57.894Z,-6.31
2019-01-24T00:22:26.837Z,-6.18
2019-01-24T00:24:56.574Z,-6.48
2019-01-24T00:27:26.531Z,-6.49
2019-01-24T00:29:56.580Z,-6.55
2019-01-24T00:32:26.076Z,-6.44
2019-01-24T00:34:55.788Z,-6.59
2019-01-24T00:37:27.678Z,-6.64
2019-01-24T00:39:56.999Z,-6.69
2019-01-24T00:42:27.859Z,-6.91
2019-01-24T00:44:56.991Z,-6.87
2019-01-24T00:47:26.094Z,-6.85
2019-01-24T00:49:56.532Z,-6.88
2019-01-24T00:52:26.051Z,-6.91
2019-01-24T00:54:56.116Z,-6.97
2019-01-24T00:57:25.522Z,-6.96
2019-01-24T00:59:56.707Z,-6.99
2019-01-24T01:02:25.840Z,-6.99
2019-01-24T01:04:55.206Z,-6.93
2019-01-24T01:07:24.264Z,-6.92
2019-01-24T01:09:54.592Z,-7.01
2019-01-24T01:12:23.971Z,-6.96
2019-01-24T01:14:53.571Z,-6.98
2019-01-24T01:17:22.527Z,-7.05
2019-01-24T01:19:51.891Z,-6.97
2019-01-24T01:22:21.343Z,-6.98
2019-01-24T01:24:51.377Z,-6.95
2019-01-24T01:27:21.701Z,-6.95
2019-01-24T01:29:50.744Z,-6.97
2019-01-24T01:32:19.806Z,-6.93
2019-01-24T01:34:50.257Z,-6.92
2019-01-24T01:37:19.437Z,-6.83
2019-01-24T01:39:49.484Z,-6.84
2019-01-24T01:42:20.124Z,-6.85
2019-01-24T01:44:50.179Z,-6.71
2019-01-24T01:47:22.674Z,-6.63
2019-01-24T01:49:51.786Z,-6.75
2019-01-24T01:52:24.506Z,-6.72
2019-01-24T01:54:54.121Z,-6.68
2019-01-24T01:57:23.293Z,-6.58
2019-01-24T01:59:52.368Z,-6.69
2019-01-24T02:02:21.341Z,-6.72
2019-01-24T02:04:51.929Z,-6.70
2019-01-24T02:07:21.307Z,-6.62
2019-01-24T02:09:50.613Z,-6.56
2019-01-24T02:12:20.253Z,-6.51
2019-01-24T02:14:49.996Z,-6.59
2019-01-24T02:17:19.354Z,-6.55
2019-01-24T02:19:49.393Z,-6.44
2019-01-24T02:22:18.735Z,-6.52
2019-01-24T02:24:47.717Z,-6.52
2019-01-24T02:27:17.093Z,-6.52
2019-01-24T02:29:47.106Z,-6.50
2019-01-24T02:32:16.775Z,-6.42
2019-01-24T02:34:49.649Z,-6.38
2019-01-24T02:37:18.165Z,-6.42
2019-01-24T02:39:49.225Z,-6.48
2019-01-24T02:42:18.630Z,-6.48
2019-01-24T02:44:47.847Z,-6.43
2019-01-24T02:47:18.129Z,-6.46
2019-01-24T02:49:48.727Z,-6.39
2019-01-24T02:52:19.204Z,-6.38
2019-01-24T02:54:48.783Z,-6.29
2019-01-24T02:57:17.817Z,-6.33
2019-01-24T02:59:47.287Z,-6.21
2019-01-24T03:02:16.701Z,-6.23
2019-01-24T03:04:45.989Z,-6.08
2019-01-24T03:07:15.535Z,-6.17
2019-01-24T03:09:44.684Z,-6.26
2019-01-24T03:12:14.330Z,-6.29
2019-01-24T03:14:43.904Z,-6.26
2019-01-24T03:17:13.044Z,-6.21
2019-01-24T03:19:42.527Z,-6.10
2019-01-24T03:22:12.078Z,-6.02
2019-01-24T03:24:41.757Z,-5.97
2019-01-24T03:27:11.745Z,-5.88
2019-01-24T03:29:41.097Z,-5.90
2019-01-24T03:32:10.758Z,-5.89
2019-01-24T03:34:39.839Z,-5.86
2019-01-24T03:37:09.476Z,-5.78
2019-01-24T03:39:38.536Z,-5.82
2019-01-24T03:42:07.845Z,-5.75
2019-01-24T03:44:37.746Z,-5.74
2019-01-24T03:47:08.027Z,-5.76
2019-01-24T03:49:37.683Z,-5.71
2019-01-24T03:52:08.576Z,-5.71
2019-01-24T03:54:41.199Z,-5.70
2019-01-24T03:57:10.793Z,-5.72
2019-01-24T03:59:40.421Z,-5.60
2019-01-24T04:02:13.473Z,-5.62
2019-01-24T04:04:43.621Z,-5.61
2019-01-24T04:07:15.306Z,-5.60
2019-01-24T04:09:45.042Z,-5.52
2019-01-24T04:12:15.257Z,-5.51
2019-01-24T04:14:44.955Z,-5.47
2019-01-24T04:17:14.323Z,-5.46
2019-01-24T04:19:44.264Z,-5.42
2019-01-24T04:22:13.691Z,-5.38
2019-01-24T04:24:42.955Z,-5.45
2019-01-24T04:27:12.859Z,-5.43
2019-01-24T04:29:42.605Z,-5.38
2019-01-24T04:32:12.418Z,-5.35
2019-01-24T04:34:42.035Z,-5.33
2019-01-24T04:37:12.037Z,-5.31
2019-01-24T04:39:40.912Z,-5.31
2019-01-24T04:42:11.548Z,-5.30
2019-01-24T04:44:40.948Z,-5.28
2019-01-24T04:47:10.166Z,-5.19
2019-01-24T04:49:40.476Z,-5.17
2019-01-24T04:52:10.397Z,-5.15
2019-01-24T04:54:41.289Z,-5.12
2019-01-24T04:57:10.553Z,-5.10
2019-01-24T04:59:39.751Z,-5.06
2019-01-24T05:02:09.067Z,-5.10
2019-01-24T05:04:38.806Z,-5.14
2019-01-24T05:07:08.333Z,-5.17
2019-01-24T05:09:37.303Z,-5.14
2019-01-24T05:12:07.218Z,-5.07
2019-01-24T05:14:36.656Z,-5.07
2019-01-24T05:17:07.494Z,-5.10
2019-01-24T05:19:37.650Z,-5.06
2019-01-24T05:22:06.732Z,-5.06
2019-01-24T05:24:36.195Z,-5.03
2019-01-24T05:27:08.536Z,-4.93
2019-01-24T05:29:37.691Z,-4.88
2019-01-24T05:32:07.307Z,-4.92
2019-01-24T05:34:36.927Z,-4.91
2019-01-24T05:37:06.527Z,-4.91
2019-01-24T05:39:38.655Z,-4.92
2019-01-24T05:42:12.827Z,-4.84
2019-01-24T05:44:45.706Z,-4.85
2019-01-24T05:47:17.575Z,-4.96
2019-01-24T05:49:50.725Z,-4.93
2019-01-24T05:52:22.040Z,-4.96
2019-01-24T05:54:51.667Z,-4.91
2019-01-24T05:57:23.890Z,-4.91
2019-01-24T05:59:54.143Z,-4.92
2019-01-24T06:02:24.765Z,-4.88
2019-01-24T06:04:56.778Z,-4.87
2019-01-24T06:07:26.696Z,-4.92
2019-01-24T06:09:57.415Z,-4.96
2019-01-24T06:12:26.906Z,-4.98
2019-01-24T06:14:56.722Z,-4.92
2019-01-24T06:17:26.182Z,-4.92
2019-01-24T06:19:58.700Z,-4.94
2019-01-24T06:22:29.359Z,-4.90
2019-01-24T06:24:59.083Z,-4.92
2019-01-24T06:27:28.949Z,-4.94
2019-01-24T06:29:59.192Z,-4.90
2019-01-24T06:32:28.720Z,-4.89
2019-01-24T06:34:58.302Z,-4.95
2019-01-24T06:37:30.423Z,-4.94
2019-01-24T06:40:00.268Z,-4.90
2019-01-24T06:42:35.303Z,-4.88
2019-01-24T06:45:07.173Z,-4.89
2019-01-24T06:47:36.747Z,-4.90
2019-01-24T06:50:07.798Z,-4.97
2019-01-24T06:52:37.708Z,-4.97
2019-01-24T06:55:10.153Z,-4.94
2019-01-24T06:57:39.780Z,-4.84
2019-01-24T07:00:12.471Z,-4.86
2019-01-24T07:02:42.467Z,-4.81
2019-01-24T07:05:15.118Z,-4.78
2019-01-24T07:07:48.450Z,-4.87
2019-01-24T07:10:21.486Z,-4.75
2019-01-24T07:12:55.730Z,-4.62
2019-01-24T07:15:33.188Z,-4.70
2019-01-24T07:18:03.916Z,-4.79
2019-01-24T07:20:34.627Z,-4.64
2019-01-24T07:23:03.808Z,-4.78
2019-01-24T07:25:33.838Z,-4.90
2019-01-24T07:28:04.198Z,-4.90
2019-01-24T07:30:34.434Z,-4.84
2019-01-24T07:33:10.605Z,-4.79
2019-01-24T07:35:41.606Z,-4.82
2019-01-24T07:38:10.768Z,-4.81
2019-01-24T07:40:40.208Z,-4.86
2019-01-24T07:43:10.038Z,-4.87
2019-01-24T07:45:42.968Z,-4.84
2019-01-24T07:48:13.338Z,-4.81
2019-01-24T07:50:45.950Z,-4.77
2019-01-24T07:53:18.496Z,-4.77
2019-01-24T07:55:48.229Z,-4.76
2019-01-24T07:58:19.958Z,-4.74
2019-01-24T08:00:50.544Z,-4.77
2019-01-24T08:03:58.505Z,-4.86
2019-01-24T08:06:42.328Z,-4.82
2019-01-24T08:09:12.308Z,-4.82
2019-01-24T08:11:46.796Z,-4.77
2019-01-24T08:14:17.121Z,-4.78
2019-01-24T08:16:45.999Z,-4.79
2019-01-24T08:19:15.969Z,-4.75
2019-01-24T08:21:45.798Z,-4.80
2019-01-24T08:24:18.381Z,-4.70
2019-01-24T08:26:48.231Z,-4.70
2019-01-24T08:29:19.849Z,-4.75
2019-01-24T08:31:50.530Z,-4.64
2019-01-24T08:34:20.833Z,-4.54
2019-01-24T08:36:53.171Z,-4.53
2019-01-24T08:39:26.607Z,-4.70
2019-01-24T08:42:00.396Z,-4.87
2019-01-24T08:44:29.973Z,-4.88
2019-01-24T08:46:59.994Z,-4.79
2019-01-24T08:49:31.487Z,-4.68
2019-01-24T08:52:03.467Z,-4.46
2019-01-24T08:54:36.663Z,-4.47
2019-01-24T08:57:05.998Z,-4.27
2019-01-24T08:59:35.913Z,-4.24
2019-01-24T09:02:06.853Z,-4.42
2019-01-24T09:04:36.258Z,-4.54
2019-01-24T09:07:06.562Z,-4.67
2019-01-24T09:09:36.155Z,-4.57
2019-01-24T09:12:05.613Z,-4.51
2019-01-24T09:14:39.928Z,-4.47
2019-01-24T09:17:10.048Z,-4.51
2019-01-24T09:19:39.511Z,-4.38
2019-01-24T09:22:14.007Z,-4.47
2019-01-24T09:24:51.732Z,-4.49
2019-01-24T09:27:21.285Z,-4.41
2019-01-24T09:29:51.509Z,-4.62
2019-01-24T09:32:21.945Z,-4.73
2019-01-24T09:34:51.706Z,-4.71
2019-01-24T09:37:21.107Z,-4.55
2019-01-24T09:39:52.741Z,-4.45
2019-01-24T09:42:22.578Z,-4.56
2019-01-24T09:44:54.215Z,-4.49
2019-01-24T09:47:24.640Z,-4.38
2019-01-24T09:49:55.468Z,-4.55
2019-01-24T09:52:27.638Z,-4.79
2019-01-24T09:54:56.608Z,-4.63
2019-01-24T09:57:26.462Z,-4.65
2019-01-24T09:59:55.831Z,-4.62
2019-01-24T10:02:25.495Z,-4.38
2019-01-24T10:04:56.621Z,-4.36
2019-01-24T10:07:26.741Z,-3.95
2019-01-24T10:09:59.431Z,-4.32
2019-01-24T10:12:30.838Z,-4.32
2019-01-24T10:15:00.574Z,-4.30
2019-01-24T10:17:35.177Z,-4.43
2019-01-24T10:20:08.538Z,-4.14
2019-01-24T10:22:39.534Z,-4.15
2019-01-24T10:25:11.924Z,-4.43
2019-01-24T10:27:43.559Z,-4.11
2019-01-24T10:30:20.441Z,-4.47
2019-01-24T10:32:56.046Z,-4.47
2019-01-24T10:35:25.819Z,-4.66
2019-01-24T10:37:55.558Z,-4.54
2019-01-24T10:40:30.625Z,-4.43
2019-01-24T10:43:05.347Z,-4.30
2019-01-24T10:45:39.538Z,-4.24
2019-01-24T10:48:15.256Z,-4.32
2019-01-24T10:50:46.549Z,-4.28
2019-01-24T10:53:16.200Z,-4.63
2019-01-24T10:55:45.546Z,-4.25
2019-01-24T10:58:15.708Z,-4.22
2019-01-24T11:00:51.228Z,-3.89
2019-01-24T11:03:22.402Z,-3.59
2019-01-24T11:05:52.951Z,-3.57
2019-01-24T11:08:22.882Z,-4.23
2019-01-24T11:10:52.595Z,-4.37
2019-01-24T11:13:24.810Z,-4.24
2019-01-24T11:15:55.393Z,-4.31
2019-01-24T11:18:24.657Z,-4.29
2019-01-24T11:20:59.234Z,-4.34
2019-01-24T11:23:29.165Z,-4.45
2019-01-24T11:25:58.805Z,-4.41
2019-01-24T11:28:27.783Z,-4.18
2019-01-24T11:30:58.443Z,-4.30
2019-01-24T11:33:34.002Z,-4.36
2019-01-24T11:36:06.422Z,-3.93
2019-01-24T11:38:36.919Z,-4.25
2019-01-24T11:41:09.848Z,-4.07
2019-01-24T11:43:43.049Z,-4.23
2019-01-24T11:46:12.403Z,-4.30
2019-01-24T11:48:42.614Z,-4.42
2019-01-24T11:51:13.107Z,-4.28
2019-01-24T11:53:52.905Z,-4.42
2019-01-24T11:56:18.815Z,-4.56
2019-01-24T11:58:49.312Z,-4.10
2019-01-24T12:01:20.051Z,-4.37
2019-01-24T12:03:50.241Z,-4.23
2019-01-24T12:06:23.367Z,-4.16
2019-01-24T12:08:55.102Z,-4.40
2019-01-24T12:11:24.387Z,-4.17
2019-01-24T12:13:59.197Z,-4.25
2019-01-24T12:16:30.247Z,-4.17
2019-01-24T12:18:59.618Z,-4.18
2019-01-24T12:21:32.093Z,-4.05
2019-01-24T12:24:01.620Z,-3.86
2019-01-24T12:26:31.292Z,-4.14
2019-01-24T12:29:06.789Z,-3.94
2019-01-24T12:31:37.351Z,-4.31
2019-01-24T12:34:07.686Z,-4.42
2019-01-24T12:36:37.288Z,-4.46
2019-01-24T12:39:12.673Z,-4.29
2019-01-24T12:41:43.741Z,-4.22
2019-01-24T12:44:14.321Z,-4.08
2019-01-24T12:46:46.091Z,-3.89
2019-01-24T12:49:18.314Z,-3.92
2019-01-24T12:51:50.165Z,-4.11
2019-01-24T12:54:19.570Z,-4.03
2019-01-24T12:56:51.426Z,-4.14
2019-01-24T12:59:23.500Z,-4.00
2019-01-24T13:01:57.251Z,-3.69
2019-01-24T13:04:31.740Z,-3.98
2019-01-24T13:07:02.342Z,-4.37
2019-01-24T13:09:32.596Z,-4.14
2019-01-24T13:12:02.136Z,-3.93
2019-01-24T13:14:34.396Z,-3.83
2019-01-24T13:17:11.361Z,-3.87
2019-01-24T13:19:43.644Z,-3.69
2019-01-24T13:22:16.027Z,-3.52
2019-01-24T13:24:54.110Z,-3.61
2019-01-24T13:27:28.635Z,-3.92
2019-01-24T13:30:04.007Z,-3.67
2019-01-24T13:32:38.940Z,-3.71
2019-01-24T13:35:16.404Z,-3.94
2019-01-24T13:37:57.807Z,-3.97
2019-01-24T13:40:30.561Z,-4.02
2019-01-24T13:43:04.637Z,-3.84
2019-01-24T13:45:43.709Z,-3.72
2019-01-24T13:48:17.381Z,-3.72
2019-01-24T13:50:52.734Z,-3.96
2019-01-24T13:53:25.720Z,-3.85
2019-01-24T13:55:56.491Z,-3.89
2019-01-24T13:58:26.776Z,-3.89
2019-01-24T14:00:56.089Z,-3.69
2019-01-24T14:03:43.936Z,-3.65
2019-01-24T14:06:16.790Z,-3.61
2019-01-24T14:08:46.909Z,-3.80
2019-01-24T14:11:20.187Z,-3.96
2019-01-24T14:13:49.530Z,-4.32
2019-01-24T14:16:19.108Z,-4.30
2019-01-24T14:18:50.105Z,-4.47
2019-01-24T14:21:21.061Z,-4.56
2019-01-24T14:23:50.378Z,-4.59
2019-01-24T14:26:20.810Z,-4.45
2019-01-24T14:28:53.064Z,-4.32
2019-01-24T14:31:25.014Z,-4.33
2019-01-24T14:33:54.391Z,-4.26
2019-01-24T14:36:30.857Z,-4.22
2019-01-24T14:39:03.671Z,-4.28
2019-01-24T14:41:36.102Z,-4.31
2019-01-24T14:44:08.523Z,-4.36
2019-01-24T14:46:37.626Z,-4.29
2019-01-24T14:49:07.883Z,-4.37
2019-01-24T14:51:37.280Z,-3.92
2019-01-24T14:54:09.983Z,-4.11
2019-01-24T14:56:40.896Z,-3.95
2019-01-24T14:59:15.608Z,-3.81
2019-01-24T15:01:54.062Z,-4.03
2019-01-24T15:04:28.369Z,-4.20
2019-01-24T15:07:00.082Z,-4.22
2019-01-24T15:09:32.512Z,-4.24
2019-01-24T15:12:02.515Z,-3.98
2019-01-24T15:14:35.691Z,-4.08
2019-01-24T15:17:07.606Z,-4.10
2019-01-24T15:19:39.985Z,-4.01
2019-01-24T15:22:12.704Z,-4.03
2019-01-24T15:24:44.898Z,-3.97
2019-01-24T15:27:14.132Z,-3.99
2019-01-24T15:29:48.115Z,-4.00
2019-01-24T15:32:17.542Z,-4.03
2019-01-24T15:34:46.756Z,-4.03
2019-01-24T15:37:16.470Z,-4.29
2019-01-24T15:39:49.991Z,-4.09
2019-01-24T15:42:22.465Z,-3.96
2019-01-24T15:44:54.406Z,-4.39
2019-01-24T15:47:24.257Z,-4.67
2019-01-24T15:49:53.528Z,-4.62
2019-01-24T15:52:33.868Z,-4.57
2019-01-24T15:54:59.179Z,-4.64
2019-01-24T15:57:29.143Z,-4.60
2019-01-24T16:00:01.463Z,-4.59
2019-01-24T16:02:31.391Z,-4.62
2019-01-24T16:05:08.660Z,-4.60
2019-01-24T16:07:51.795Z,-4.59
2019-01-24T16:10:27.203Z,-4.52
2019-01-24T16:12:58.933Z,-4.52
2019-01-24T16:15:34.350Z,-4.63
2019-01-24T16:18:09.581Z,-4.60
2019-01-24T16:20:42.721Z,-4.56
2019-01-24T16:23:12.083Z,-4.51
2019-01-24T16:25:42.616Z,-4.52
2019-01-24T16:28:24.459Z,-4.45
2019-01-24T16:30:50.419Z,-4.48
2019-01-24T16:33:23.265Z,-4.53
2019-01-24T16:35:57.664Z,-4.48
2019-01-24T16:38:27.142Z,-4.48
2019-01-24T16:40:59.354Z,-4.55
2019-01-24T16:43:32.867Z,-4.48
2019-01-24T16:46:02.782Z,-4.41
2019-01-24T16:48:32.211Z,-4.29
2019-01-24T16:51:12.278Z,-4.17
2019-01-24T16:53:53.076Z,-4.27
2019-01-24T16:56:38.427Z,-4.35
2019-01-24T16:59:09.583Z,-4.37
2019-01-24T17:01:50.237Z,-4.35
2019-01-24T17:04:28.302Z,-4.27
2019-01-24T17:06:59.724Z,-4.33
2019-01-24T17:09:31.819Z,-4.07
2019-01-24T17:12:02.567Z,-4.16
2019-01-24T17:14:33.276Z,-4.34
2019-01-24T17:17:08.792Z,-4.30
2019-01-24T17:19:39.951Z,-4.12
2019-01-24T17:22:10.999Z,-4.10
2019-01-24T17:24:39.751Z,-4.13
2019-01-24T17:27:10.507Z,-4.08
2019-01-24T17:29:42.973Z,-4.06
2019-01-24T17:32:13.330Z,-3.89
2019-01-24T17:34:44.607Z,-3.85
2019-01-24T17:37:14.371Z,-4.11
2019-01-24T17:39:45.277Z,-4.17
2019-01-24T17:42:17.275Z,-4.40
2019-01-24T17:44:53.695Z,-4.42
2019-01-24T17:47:32.374Z,-4.45
2019-01-24T17:50:04.566Z,-4.40
2019-01-24T17:52:45.097Z,-4.39
2019-01-24T17:55:20.029Z,-4.37
2019-01-24T17:57:52.423Z,-4.33
2019-01-24T18:00:23.363Z,-4.30
2019-01-24T18:02:53.647Z,-4.08
2019-01-24T18:05:25.996Z,-3.76
2019-01-24T18:07:56.044Z,-3.74
2019-01-24T18:10:26.209Z,-3.84
2019-01-24T18:12:58.948Z,-3.78
2019-01-24T18:15:29.379Z,-3.90
2019-01-24T18:18:06.222Z,-3.93
2019-01-24T18:20:44.519Z,-3.96
2019-01-24T18:23:26.689Z,-3.75
2019-01-24T18:26:02.095Z,-3.70
2019-01-24T18:28:36.207Z,-3.92
2019-01-24T18:31:08.249Z,-3.85
2019-01-24T18:33:42.116Z,-3.94
2019-01-24T18:36:14.873Z,-4.02
2019-01-24T18:38:48.089Z,-3.86
2019-01-24T18:41:18.183Z,-3.91
2019-01-24T18:43:49.290Z,-3.93
2019-01-24T18:46:19.654Z,-4.03
2019-01-24T18:48:51.833Z,-3.94
2019-01-24T18:51:22.119Z,-4.02
2019-01-24T18:53:52.649Z,-3.96
2019-01-24T18:56:23.313Z,-3.84
2019-01-24T18:58:53.267Z,-3.93
2019-01-24T19:01:24.486Z,-4.01
2019-01-24T19:03:59.898Z,-3.97
2019-01-24T19:06:28.918Z,-3.95
2019-01-24T19:08:58.129Z,-4.00
2019-01-24T19:11:29.845Z,-3.86
2019-01-24T19:13:59.474Z,-3.83
2019-01-24T19:16:28.836Z,-4.16
2019-01-24T19:19:01.986Z,-4.04
2019-01-24T19:21:38.196Z,-3.99
2019-01-24T19:24:08.931Z,-3.90
2019-01-24T19:26:43.877Z,-3.90
2019-01-24T19:29:16.845Z,-4.05
2019-01-24T19:31:49.031Z,-4.05
2019-01-24T19:34:22.221Z,-3.98
2019-01-24T19:36:54.827Z,-3.98
2019-01-24T19:39:27.155Z,-4.01
2019-01-24T19:42:04.520Z,-3.98
2019-01-24T19:44:38.521Z,-4.00
2019-01-24T19:47:15.740Z,-3.85
2019-01-24T19:49:45.541Z,-4.12
2019-01-24T19:53:06.182Z,-4.10
2019-01-24T19:55:38.545Z,-4.15
2019-01-24T19:58:12.617Z,-4.16
2019-01-24T20:00:49.133Z,-4.17
2019-01-24T20:03:24.344Z,-4.04
2019-01-24T20:05:59.144Z,-4.10
2019-01-24T20:08:28.722Z,-4.00
2019-01-24T20:10:58.138Z,-4.04
2019-01-24T20:13:28.067Z,-4.08
2019-01-24T20:16:04.092Z,-3.95
2019-01-24T20:18:34.994Z,-3.84
2019-01-24T20:21:10.948Z,-3.76
2019-01-24T20:23:44.298Z,-3.96
2019-01-24T20:26:24.995Z,-3.78
2019-01-24T20:28:56.075Z,-3.95
2019-01-24T20:31:31.891Z,-4.17
2019-01-24T20:34:03.981Z,-4.26
2019-01-24T20:36:44.922Z,-4.18
2019-01-24T20:39:16.417Z,-4.08
2019-01-24T20:41:52.566Z,-3.93
2019-01-24T20:44:22.728Z,-4.00
2019-01-24T20:46:52.486Z,-4.17
2019-01-24T20:49:32.950Z,-4.10
2019-01-24T20:52:09.051Z,-4.13
2019-01-24T20:54:41.088Z,-4.01
2019-01-24T20:57:10.750Z,-3.94
2019-01-24T20:59:45.293Z,-4.07
2019-01-24T21:02:18.787Z,-4.16
2019-01-24T21:04:48.663Z,-4.07
2019-01-24T21:07:17.867Z,-3.81
2019-01-24T21:09:47.647Z,-3.84
2019-01-24T21:12:21.912Z,-3.80
2019-01-24T21:14:51.142Z,-4.03
2019-01-24T21:17:20.598Z,-4.02
2019-01-24T21:19:56.647Z,-4.14
2019-01-24T21:22:29.275Z,-4.21
2019-01-24T21:24:58.798Z,-4.20
2019-01-24T21:27:30.863Z,-4.19
2019-01-24T21:30:00.603Z,-4.13
2019-01-24T21:32:35.918Z,-4.02
2019-01-24T21:35:07.166Z,-3.97
2019-01-24T21:37:36.867Z,-3.77
2019-01-24T21:40:07.786Z,-3.84
2019-01-24T21:42:38.498Z,-4.03
2019-01-24T21:45:12.569Z,-3.84
2019-01-24T21:47:42.630Z,-3.72
2019-01-24T21:50:14.484Z,-3.68
2019-01-24T21:52:47.970Z,-3.63
2019-01-24T21:55:19.196Z,-3.54
2019-01-24T21:57:49.021Z,-3.44
2019-01-24T22:00:23.464Z,-3.39
2019-01-24T22:02:54.368Z,-3.58
2019-01-24T22:05:24.294Z,-3.83
2019-01-24T22:07:54.906Z,-3.61
2019-01-24T22:10:26.936Z,-3.55
2019-01-24T22:12:57.515Z,-3.76
2019-01-24T22:15:30.456Z,-3.68
2019-01-24T22:18:01.956Z,-3.80
2019-01-24T22:20:34.803Z,-4.00
2019-01-24T22:23:05.370Z,-4.03
2019-01-24T22:25:36.118Z,-3.86
2019-01-24T22:28:06.771Z,-3.67
2019-01-24T22:30:45.107Z,-3.87
2019-01-24T22:33:15.129Z,-3.68
2019-01-24T22:35:45.763Z,-3.88
2019-01-24T22:38:17.494Z,-4.04
2019-01-24T22:40:47.247Z,-3.78
2019-01-24T22:43:17.162Z,-3.70
2019-01-24T22:45:50.707Z,-3.65
2019-01-24T22:48:21.554Z,-3.71
2019-01-24T22:50:54.566Z,-3.55
2019-01-24T22:53:24.465Z,-3.54
2019-01-24T22:55:55.873Z,-3.56
2019-01-24T22:58:25.963Z,-3.54
2019-01-24T23:01:20.370Z,-3.61
2019-01-24T23:04:13.409Z,-3.59
2019-01-24T23:06:43.572Z,-3.52
2019-01-24T23:09:13.313Z,-3.57
2019-01-24T23:11:44.604Z,-3.73
2019-01-24T23:14:15.713Z,-3.76
2019-01-24T23:16:51.438Z,-3.85
2019-01-24T23:19:23.407Z,-3.72
2019-01-24T23:21:55.418Z,-3.92
2019-01-24T23:24:31.212Z,-3.90
2019-01-24T23:27:00.762Z,-3.80
2019-01-24T23:29:32.975Z,-3.83
2019-01-24T23:32:02.810Z,-3.82
2019-01-24T23:34:31.954Z,-3.66
2019-01-24T23:37:02.612Z,-3.77
2019-01-24T23:39:32.312Z,-3.83
2019-01-24T23:42:01.829Z,-3.95
2019-01-24T23:44:31.518Z,-4.04
2019-01-24T23:47:01.040Z,-4.00
2019-01-24T23:49:31.606Z,-3.86
2019-01-24T23:52:02.875Z,-3.60
2019-01-24T23:54:32.210Z,-3.67
2019-01-24T23:57:01.409Z,-3.57
2019-01-24T23:59:31.555Z,-3.86
